createdAt,value
2018-01-06T00:01:30.544Z,0.00
2018-01-06T00:02:30.512Z,0.00
2018-01-06T00:04:23.347Z,0.00
2018-01-06T00:05:23.327Z,0.00
2018-01-06T00:07:16.175Z,0.00
2018-01-06T00:08:16.136Z,0.00
2018-01-06T00:10:08.978Z,0.00
2018-01-06T00:11:08.950Z,0.00
2018-01-06T00:13:01.805Z,0.00
2018-01-06T00:14:01.787Z,0.00
2018-01-06T00:15:54.597Z,0.00
2018-01-06T00:16:54.576Z,0.00
2018-01-06T00:18:47.422Z,0.00
2018-01-06T00:19:47.387Z,0.00
2018-01-06T00:21:40.220Z,0.00
2018-01-06T00:22:40.200Z,0.00
2018-01-06T00:24:33.050Z,0.00
2018-01-06T00:25:33.012Z,0.00
2018-01-06T00:27:25.840Z,0.00
2018-01-06T00:28:25.826Z,0.00
2018-01-06T00:30:18.673Z,0.00
2018-01-06T00:31:18.634Z,0.00
2018-01-06T00:33:11.464Z,0.00
2018-01-06T00:34:11.443Z,0.00
2018-01-06T00:36:04.294Z,0.00
2018-01-06T00:37:04.259Z,0.00
2018-01-06T00:38:57.087Z,0.00
2018-01-06T00:39:57.066Z,0.00
2018-01-06T00:41:49.925Z,0.00
2018-01-06T00:42:49.882Z,0.00
2018-01-06T00:44:42.711Z,0.00
2018-01-06T00:45:42.690Z,0.00
2018-01-06T00:47:35.535Z,0.00
2018-01-06T00:48:35.501Z,0.00
2018-01-06T00:50:28.335Z,0.00
2018-01-06T00:51:28.312Z,0.00
2018-01-06T00:53:21.158Z,0.00
2018-01-06T00:54:21.121Z,0.00
2018-01-06T00:56:13.953Z,0.00
2018-01-06T00:57:13.931Z,0.00
2018-01-06T00:59:06.780Z,0.00
2018-01-06T01:00:06.747Z,0.00
2018-01-06T01:01:59.579Z,0.00
2018-01-06T01:02:59.557Z,0.00
2018-01-06T01:04:52.404Z,0.00
2018-01-06T01:05:52.368Z,0.00
2018-01-06T01:07:45.204Z,0.00
2018-01-06T01:08:45.184Z,0.00
2018-01-06T01:10:38.040Z,0.00
2018-01-06T01:11:37.992Z,0.00
2018-01-06T01:13:30.825Z,0.00
2018-01-06T01:14:30.804Z,0.00
2018-01-06T01:16:23.649Z,0.00
2018-01-06T01:17:23.613Z,0.00
2018-01-06T01:19:16.446Z,0.00
2018-01-06T01:20:16.424Z,0.00
2018-01-06T01:22:09.285Z,0.00
2018-01-06T01:23:09.237Z,0.00
2018-01-06T01:25:02.069Z,0.00
2018-01-06T01:26:02.051Z,0.00
2018-01-06T01:27:54.907Z,0.00
2018-01-06T01:28:54.856Z,0.00
2018-01-06T01:30:47.693Z,0.00
2018-01-06T01:31:47.668Z,0.00
2018-01-06T01:33:40.521Z,0.00
2018-01-06T01:34:40.489Z,0.00
2018-01-06T01:36:33.317Z,0.00
2018-01-06T01:37:33.299Z,0.00
2018-01-06T01:39:26.152Z,0.00
2018-01-06T01:40:26.110Z,0.00
2018-01-06T01:42:18.943Z,0.00
2018-01-06T01:43:18.924Z,0.00
2018-01-06T01:45:11.771Z,0.00
2018-01-06T01:46:11.732Z,0.00
2018-01-06T01:48:04.567Z,0.00
2018-01-06T01:49:04.554Z,0.00
2018-01-06T01:50:57.400Z,0.00
2018-01-06T01:51:57.361Z,0.00
2018-01-06T01:53:50.205Z,0.00
2018-01-06T01:54:50.180Z,0.00
2018-01-06T01:56:43.031Z,0.00
2018-01-06T01:57:43.007Z,0.00
2018-01-06T01:59:35.841Z,0.00
2018-01-06T02:00:35.818Z,0.00
2018-01-06T02:02:28.665Z,0.00
2018-01-06T02:03:28.632Z,0.00
2018-01-06T02:05:21.462Z,0.00
2018-01-06T02:06:21.446Z,0.00
2018-01-06T02:08:14.284Z,0.00
2018-01-06T02:09:14.251Z,0.00
2018-01-06T02:11:07.084Z,0.00
2018-01-06T02:12:07.104Z,0.00
2018-01-06T02:13:59.910Z,0.00
2018-01-06T02:14:59.880Z,0.00
2018-01-06T02:16:52.706Z,0.00
2018-01-06T02:17:52.687Z,0.00
2018-01-06T02:19:45.538Z,0.00
2018-01-06T02:20:45.502Z,0.00
2018-01-06T02:22:38.330Z,0.00
2018-01-06T02:23:38.312Z,0.00
2018-01-06T02:25:31.159Z,0.00
2018-01-06T02:26:31.128Z,0.00
2018-01-06T02:28:23.958Z,0.00
2018-01-06T02:29:23.941Z,0.00
2018-01-06T02:31:16.792Z,0.00
2018-01-06T02:32:16.759Z,0.00
2018-01-06T02:34:09.596Z,0.00
2018-01-06T02:35:09.572Z,0.00
2018-01-06T02:37:02.424Z,0.00
2018-01-06T02:38:02.386Z,0.00
2018-01-06T02:39:55.217Z,0.00
2018-01-06T02:40:55.202Z,0.00
2018-01-06T02:42:48.047Z,0.00
2018-01-06T02:43:48.012Z,0.00
2018-01-06T02:45:40.849Z,0.00
2018-01-06T02:46:40.820Z,0.00
2018-01-06T02:48:33.667Z,0.00
2018-01-06T02:49:33.639Z,0.00
2018-01-06T02:51:26.466Z,0.00
2018-01-06T02:52:26.443Z,0.00
2018-01-06T02:54:19.292Z,0.00
2018-01-06T02:55:19.258Z,0.00
2018-01-06T02:57:12.314Z,0.00
2018-01-06T02:58:12.066Z,0.00
2018-01-06T03:00:04.919Z,0.00
2018-01-06T03:01:04.880Z,0.00
2018-01-06T03:02:57.715Z,0.00
2018-01-06T03:03:57.692Z,0.00
2018-01-06T03:05:50.544Z,0.00
2018-01-06T03:06:50.507Z,0.00
2018-01-06T03:08:43.341Z,0.00
2018-01-06T03:09:43.324Z,0.00
2018-01-06T03:11:36.169Z,0.00
2018-01-06T03:12:36.131Z,0.00
2018-01-06T03:14:28.962Z,0.00
2018-01-06T03:15:28.945Z,0.00
2018-01-06T03:17:21.795Z,0.00
2018-01-06T03:18:21.752Z,0.00
2018-01-06T03:20:14.582Z,0.00
2018-01-06T03:21:14.564Z,0.00
2018-01-06T03:23:07.403Z,0.00
2018-01-06T03:24:07.369Z,0.00
2018-01-06T03:26:00.210Z,0.00
2018-01-06T03:27:00.187Z,0.00
2018-01-06T03:28:53.030Z,0.00
2018-01-06T03:29:52.996Z,0.00
2018-01-06T03:31:45.827Z,0.00
2018-01-06T03:32:45.809Z,0.00
2018-01-06T03:34:38.664Z,0.00
2018-01-06T03:35:38.631Z,0.00
2018-01-06T03:37:31.463Z,0.00
2018-01-06T03:38:31.442Z,0.00
2018-01-06T03:40:24.293Z,0.00
2018-01-06T03:41:24.256Z,0.00
2018-01-06T03:43:17.091Z,0.00
2018-01-06T03:44:17.074Z,0.00
2018-01-06T03:46:09.940Z,0.00
2018-01-06T03:47:09.884Z,0.00
2018-01-06T03:49:02.711Z,0.00
2018-01-06T03:50:02.692Z,0.00
2018-01-06T03:51:55.540Z,0.00
2018-01-06T03:52:55.505Z,0.00
2018-01-06T03:54:48.333Z,0.00
2018-01-06T03:55:48.309Z,0.00
2018-01-06T03:57:41.159Z,0.00
2018-01-06T03:58:41.118Z,0.00
2018-01-06T04:00:33.964Z,0.00
2018-01-06T04:01:33.943Z,0.00
2018-01-06T04:03:26.798Z,0.00
2018-01-06T04:04:26.758Z,0.00
2018-01-06T04:06:19.596Z,0.00
2018-01-06T04:07:19.572Z,0.00
2018-01-06T04:09:12.417Z,0.00
2018-01-06T04:10:12.383Z,0.00
2018-01-06T04:12:05.210Z,0.00
2018-01-06T04:13:05.185Z,0.00
2018-01-06T04:14:58.050Z,0.00
2018-01-06T04:15:58.006Z,0.00
2018-01-06T04:17:50.835Z,0.00
2018-01-06T04:18:50.812Z,0.00
2018-01-06T04:20:43.674Z,0.00
2018-01-06T04:21:43.634Z,0.00
2018-01-06T04:23:36.462Z,0.00
2018-01-06T04:24:36.437Z,0.00
2018-01-06T04:26:29.289Z,0.00
2018-01-06T04:27:29.251Z,0.00
2018-01-06T04:29:22.084Z,0.00
2018-01-06T04:30:22.062Z,0.00
2018-01-06T04:32:14.910Z,0.00
2018-01-06T04:33:14.871Z,0.00
2018-01-06T04:35:07.707Z,0.00
2018-01-06T04:36:07.682Z,0.00
2018-01-06T04:38:00.541Z,0.00
2018-01-06T04:39:00.494Z,0.00
2018-01-06T04:40:53.323Z,0.00
2018-01-06T04:41:53.300Z,0.00
2018-01-06T04:43:46.160Z,0.00
2018-01-06T04:44:46.116Z,0.00
2018-01-06T04:46:38.961Z,0.00
2018-01-06T04:47:38.922Z,0.00
2018-01-06T04:49:31.775Z,0.00
2018-01-06T04:50:31.741Z,0.00
2018-01-06T04:52:24.575Z,0.00
2018-01-06T04:53:24.556Z,0.00
2018-01-06T04:55:17.401Z,0.00
2018-01-06T04:56:17.363Z,0.00
2018-01-06T04:58:10.198Z,0.00
2018-01-06T04:59:10.174Z,0.00
2018-01-06T05:01:03.021Z,0.00
2018-01-06T05:02:02.983Z,0.00
2018-01-06T05:03:55.816Z,0.00
2018-01-06T05:04:55.790Z,0.00
2018-01-06T05:06:48.646Z,0.00
2018-01-06T05:07:48.609Z,0.00
2018-01-06T05:09:41.437Z,0.00
2018-01-06T05:10:41.418Z,0.00
2018-01-06T05:12:34.270Z,0.00
2018-01-06T05:13:34.230Z,0.00
2018-01-06T05:15:27.065Z,0.00
2018-01-06T05:16:27.042Z,0.00
2018-01-06T05:18:19.893Z,0.00
2018-01-06T05:19:19.854Z,0.00
2018-01-06T05:21:12.689Z,0.00
2018-01-06T05:22:12.667Z,0.00
2018-01-06T05:24:05.534Z,0.00
2018-01-06T05:25:05.500Z,0.00
2018-01-06T05:26:58.331Z,0.00
2018-01-06T05:27:58.310Z,0.00
2018-01-06T05:29:51.156Z,0.00
2018-01-06T05:30:51.115Z,0.00
2018-01-06T05:32:43.949Z,0.00
2018-01-06T05:33:43.931Z,0.00
2018-01-06T05:35:36.785Z,0.00
2018-01-06T05:36:36.741Z,0.00
2018-01-06T05:38:29.569Z,0.00
2018-01-06T05:39:29.548Z,0.00
2018-01-06T05:41:22.399Z,0.00
2018-01-06T05:42:22.364Z,0.00
2018-01-06T05:44:15.198Z,0.00
2018-01-06T05:45:15.176Z,0.00
2018-01-06T05:47:08.033Z,0.00
2018-01-06T05:48:07.996Z,0.00
2018-01-06T05:50:00.823Z,0.00
2018-01-06T05:51:00.803Z,0.00
2018-01-06T05:52:53.654Z,0.00
2018-01-06T05:53:53.615Z,0.00
2018-01-06T05:55:46.449Z,0.00
2018-01-06T05:56:46.428Z,0.00
2018-01-06T05:58:39.276Z,0.00
2018-01-06T05:59:39.240Z,0.00
2018-01-06T06:01:32.077Z,0.00
2018-01-06T06:02:32.056Z,0.00
2018-01-06T06:04:24.906Z,0.00
2018-01-06T06:05:24.869Z,0.00
2018-01-06T06:07:17.717Z,0.00
2018-01-06T06:08:17.693Z,0.00
2018-01-06T06:10:10.543Z,0.00
2018-01-06T06:11:10.500Z,0.00
2018-01-06T06:13:03.330Z,0.00
2018-01-06T06:14:03.312Z,0.00
2018-01-06T06:15:56.268Z,0.00
2018-01-06T06:16:56.116Z,0.00
2018-01-06T06:18:48.952Z,0.00
2018-01-06T06:19:48.928Z,0.00
2018-01-06T06:21:41.777Z,0.00
2018-01-06T06:22:41.741Z,0.00
2018-01-06T06:24:34.570Z,0.00
2018-01-06T06:25:34.551Z,0.00
2018-01-06T06:27:27.404Z,0.00
2018-01-06T06:28:27.360Z,0.00
2018-01-06T06:30:20.200Z,0.00
2018-01-06T06:31:20.181Z,0.00
2018-01-06T06:33:13.031Z,0.00
2018-01-06T06:34:12.990Z,0.00
2018-01-06T06:36:05.822Z,0.00
2018-01-06T06:37:05.803Z,0.00
2018-01-06T06:38:58.656Z,0.00
2018-01-06T06:39:58.610Z,0.00
2018-01-06T06:41:51.441Z,0.00
2018-01-06T06:42:51.422Z,0.00
2018-01-06T06:44:44.275Z,0.00
2018-01-06T06:45:44.237Z,0.00
2018-01-06T06:47:37.069Z,0.00
2018-01-06T06:48:37.058Z,0.00
2018-01-06T06:50:29.901Z,0.00
2018-01-06T06:51:29.855Z,0.00
2018-01-06T06:53:22.688Z,0.00
2018-01-06T06:54:22.670Z,0.00
2018-01-06T06:56:15.515Z,0.00
2018-01-06T06:57:15.478Z,0.00
2018-01-06T06:59:08.310Z,0.00
2018-01-06T07:00:08.287Z,0.00
2018-01-06T07:02:01.134Z,0.00
2018-01-06T07:03:01.095Z,0.00
2018-01-06T07:04:53.931Z,0.00
2018-01-06T07:05:53.906Z,0.00
2018-01-06T07:07:46.760Z,0.00
2018-01-06T07:08:46.718Z,0.00
2018-01-06T07:10:39.551Z,0.00
2018-01-06T07:11:39.562Z,0.00
2018-01-06T07:13:32.379Z,0.00
2018-01-06T07:14:32.335Z,0.00
2018-01-06T07:16:25.166Z,0.00
2018-01-06T07:17:25.146Z,0.00
2018-01-06T07:19:17.994Z,0.00
2018-01-06T07:20:17.957Z,0.00
2018-01-06T07:22:10.787Z,0.00
2018-01-06T07:23:10.766Z,0.00
2018-01-06T07:25:03.609Z,0.00
2018-01-06T07:26:03.577Z,0.00
2018-01-06T07:27:56.412Z,0.00
2018-01-06T07:28:56.388Z,0.00
2018-01-06T07:30:49.238Z,0.00
2018-01-06T07:31:49.202Z,0.00
2018-01-06T07:33:42.033Z,0.00
2018-01-06T07:34:42.011Z,0.00
2018-01-06T07:36:34.861Z,0.00
2018-01-06T07:37:34.818Z,0.00
2018-01-06T07:39:27.655Z,0.00
2018-01-06T07:40:27.633Z,0.00
2018-01-06T07:42:20.495Z,0.00
2018-01-06T07:43:20.442Z,0.00
2018-01-06T07:45:13.274Z,0.00
2018-01-06T07:46:13.261Z,0.00
2018-01-06T07:48:06.101Z,0.00
2018-01-06T07:49:06.065Z,0.00
2018-01-06T07:50:58.891Z,0.00
2018-01-06T07:51:58.873Z,0.00
2018-01-06T07:53:51.717Z,0.00
2018-01-06T07:54:51.683Z,0.00
2018-01-06T07:56:44.512Z,0.00
2018-01-06T07:57:44.493Z,0.00
2018-01-06T07:59:37.347Z,0.00
2018-01-06T08:00:37.304Z,0.00
2018-01-06T08:02:30.136Z,0.00
2018-01-06T08:03:30.114Z,0.00
2018-01-06T08:05:22.966Z,0.00
2018-01-06T08:06:22.923Z,0.00
2018-01-06T08:08:15.759Z,0.00
2018-01-06T08:09:15.735Z,0.00
2018-01-06T08:11:08.584Z,0.00
2018-01-06T08:12:08.542Z,0.00
2018-01-06T08:14:01.373Z,0.00
2018-01-06T08:15:01.355Z,0.00
2018-01-06T08:16:54.202Z,0.00
2018-01-06T08:17:54.163Z,0.00
2018-01-06T08:19:46.995Z,0.00
2018-01-06T08:20:46.979Z,0.00
2018-01-06T08:22:39.824Z,0.00
2018-01-06T08:23:39.807Z,0.00
2018-01-06T08:25:32.619Z,0.00
2018-01-06T08:26:32.620Z,0.00
2018-01-06T08:28:25.498Z,5.63
2018-01-06T08:29:25.447Z,5.63
2018-01-06T08:31:18.394Z,5.63
2018-01-06T08:32:18.278Z,5.63
2018-01-06T08:34:11.136Z,5.63
2018-01-06T08:35:11.098Z,5.63
2018-01-06T08:37:03.930Z,5.63
2018-01-06T08:38:03.908Z,5.63
2018-01-06T08:39:56.757Z,5.63
2018-01-06T08:40:56.714Z,5.63
2018-01-06T08:42:49.544Z,5.63
2018-01-06T08:43:49.530Z,5.63
2018-01-06T08:45:42.374Z,5.63
2018-01-06T08:46:42.337Z,5.63
2018-01-06T08:48:35.766Z,5.63
2018-01-06T08:49:35.151Z,5.63
2018-01-06T08:51:27.999Z,5.63
2018-01-06T08:52:27.960Z,5.63
2018-01-06T08:54:20.793Z,5.63
2018-01-06T08:55:20.770Z,5.63
2018-01-06T08:57:13.619Z,5.63
2018-01-06T08:58:13.581Z,5.63
2018-01-06T09:00:06.412Z,11.25
2018-01-06T09:01:06.391Z,5.63
2018-01-06T09:02:59.242Z,5.63
2018-01-06T09:03:59.203Z,5.63
2018-01-06T09:05:52.031Z,5.63
2018-01-06T09:06:52.019Z,5.63
2018-01-06T09:08:44.868Z,5.63
2018-01-06T09:09:44.892Z,5.63
2018-01-06T09:11:37.681Z,5.63
2018-01-06T09:12:37.664Z,5.63
2018-01-06T09:14:30.512Z,5.63
2018-01-06T09:15:30.475Z,5.63
2018-01-06T09:17:23.328Z,5.63
2018-01-06T09:18:23.285Z,5.63
2018-01-06T09:20:16.135Z,5.63
2018-01-06T09:21:16.097Z,5.63
2018-01-06T09:23:08.932Z,5.63
2018-01-06T09:24:08.913Z,5.63
2018-01-06T09:26:01.765Z,5.63
2018-01-06T09:27:01.729Z,5.63
2018-01-06T09:28:54.557Z,5.63
2018-01-06T09:29:54.535Z,5.63
2018-01-06T09:31:47.392Z,5.63
2018-01-06T09:32:47.348Z,5.63
2018-01-06T09:34:40.186Z,5.63
2018-01-06T09:35:40.188Z,5.63
2018-01-06T09:37:33.023Z,5.63
2018-01-06T09:38:32.978Z,5.63
2018-01-06T09:40:25.811Z,5.63
2018-01-06T09:41:25.790Z,5.63
2018-01-06T09:43:18.644Z,5.63
2018-01-06T09:44:18.599Z,5.63
2018-01-06T09:46:11.436Z,5.63
2018-01-06T09:47:11.418Z,5.63
2018-01-06T09:49:04.301Z,5.63
2018-01-06T09:50:04.239Z,5.63
2018-01-06T09:51:57.061Z,5.63
2018-01-06T09:52:57.048Z,5.63
2018-01-06T09:54:49.884Z,5.63
2018-01-06T09:55:49.847Z,5.63
2018-01-06T09:57:42.681Z,5.63
2018-01-06T09:58:42.662Z,5.63
2018-01-06T10:00:35.511Z,11.25
2018-01-06T10:01:35.478Z,11.25
2018-01-06T10:03:28.314Z,11.25
2018-01-06T10:04:28.296Z,11.25
2018-01-06T10:06:21.140Z,11.25
2018-01-06T10:07:21.115Z,11.25
2018-01-06T10:09:13.935Z,11.25
2018-01-06T10:10:13.916Z,11.25
2018-01-06T10:12:06.764Z,11.25
2018-01-06T10:13:06.729Z,16.88
2018-01-06T10:14:59.567Z,16.88
2018-01-06T10:15:59.544Z,16.88
2018-01-06T10:17:52.411Z,16.88
2018-01-06T10:18:52.360Z,16.88
2018-01-06T10:20:45.193Z,16.88
2018-01-06T10:21:45.171Z,16.88
2018-01-06T10:23:38.032Z,16.88
2018-01-06T10:24:38.002Z,22.50
2018-01-06T10:26:30.835Z,22.50
2018-01-06T10:27:30.818Z,16.88
2018-01-06T10:29:23.667Z,16.88
2018-01-06T10:30:23.632Z,16.88
2018-01-06T10:32:16.474Z,16.88
2018-01-06T10:33:16.483Z,16.88
2018-01-06T10:35:09.306Z,16.88
2018-01-06T10:36:09.271Z,16.88
2018-01-06T10:38:02.112Z,22.50
2018-01-06T10:39:02.094Z,22.50
2018-01-06T10:40:54.949Z,22.50
2018-01-06T10:41:54.904Z,22.50
2018-01-06T10:43:47.836Z,16.88
2018-01-06T10:44:47.715Z,16.88
2018-01-06T10:46:40.566Z,16.88
2018-01-06T10:47:40.591Z,16.88
2018-01-06T10:49:33.368Z,16.88
2018-01-06T10:50:33.360Z,16.88
2018-01-06T10:52:26.202Z,16.88
2018-01-06T10:53:26.167Z,16.88
2018-01-06T10:55:19.031Z,16.88
2018-01-06T10:56:18.982Z,16.88
2018-01-06T10:58:11.932Z,16.88
2018-01-06T10:59:11.839Z,22.50
2018-01-06T11:01:04.671Z,28.13
2018-01-06T11:02:04.668Z,33.75
2018-01-06T11:03:57.533Z,28.13
2018-01-06T11:04:57.473Z,28.13
2018-01-06T11:06:50.308Z,28.13
2018-01-06T11:07:50.288Z,22.50
2018-01-06T11:09:43.237Z,22.50
2018-01-06T11:10:43.104Z,16.88
2018-01-06T11:12:35.935Z,16.88
2018-01-06T11:13:35.916Z,16.88
2018-01-06T11:15:28.880Z,22.50
2018-01-06T11:16:28.730Z,22.50
2018-01-06T11:18:21.580Z,28.13
2018-01-06T11:19:21.559Z,28.13
2018-01-06T11:21:14.408Z,33.75
2018-01-06T11:22:14.375Z,33.75
2018-01-06T11:24:07.207Z,45.00
2018-01-06T11:25:07.190Z,50.63
2018-01-06T11:27:00.046Z,45.00
2018-01-06T11:28:00.011Z,50.63
2018-01-06T11:29:52.856Z,45.00
2018-01-06T11:30:52.828Z,45.00
2018-01-06T11:32:45.687Z,39.38
2018-01-06T11:33:45.641Z,39.38
2018-01-06T11:35:38.480Z,45.00
2018-01-06T11:36:38.462Z,45.00
2018-01-06T11:38:31.324Z,50.63
2018-01-06T11:39:31.289Z,50.63
2018-01-06T11:41:24.125Z,45.00
2018-01-06T11:42:24.103Z,45.00
2018-01-06T11:44:16.956Z,45.00
2018-01-06T11:45:16.922Z,39.38
2018-01-06T11:47:09.808Z,45.00
2018-01-06T11:48:09.740Z,50.63
2018-01-06T11:50:02.592Z,45.00
2018-01-06T11:51:02.561Z,50.63
2018-01-06T11:52:55.371Z,50.63
2018-01-06T11:53:55.356Z,50.63
2018-01-06T11:55:48.226Z,50.63
2018-01-06T11:56:48.195Z,45.00
2018-01-06T11:58:41.051Z,39.38
2018-01-06T11:59:41.031Z,39.38
2018-01-06T12:01:33.916Z,33.75
2018-01-06T12:02:33.873Z,33.75
2018-01-06T12:04:26.727Z,45.00
2018-01-06T12:05:26.712Z,50.63
2018-01-06T12:07:19.583Z,56.25
2018-01-06T12:08:19.550Z,50.63
2018-01-06T12:10:12.409Z,50.63
2018-01-06T12:11:12.400Z,50.63
2018-01-06T12:13:05.259Z,50.63
2018-01-06T12:14:05.228Z,45.00
2018-01-06T12:15:58.088Z,39.38
2018-01-06T12:16:58.068Z,33.75
2018-01-06T12:18:50.953Z,33.75
2018-01-06T12:19:50.906Z,28.13
2018-01-06T12:21:43.769Z,33.75
2018-01-06T12:22:43.756Z,33.75
2018-01-06T12:24:36.625Z,28.13
2018-01-06T12:25:36.598Z,28.13
2018-01-06T12:27:29.457Z,28.13
2018-01-06T12:28:29.434Z,22.50
2018-01-06T12:30:22.307Z,22.50
2018-01-06T12:31:22.277Z,22.50
2018-01-06T12:33:15.136Z,16.88
2018-01-06T12:34:15.117Z,16.88
2018-01-06T12:36:07.988Z,16.88
2018-01-06T12:37:07.958Z,16.88
2018-01-06T12:39:00.813Z,16.88
2018-01-06T12:40:00.797Z,16.88
2018-01-06T12:41:53.677Z,16.88
2018-01-06T12:42:53.637Z,16.88
2018-01-06T12:44:46.507Z,22.50
2018-01-06T12:45:46.477Z,22.50
2018-01-06T12:47:39.351Z,22.50
2018-01-06T12:48:39.331Z,16.88
2018-01-06T12:50:32.167Z,16.88
2018-01-06T12:51:32.155Z,16.88
2018-01-06T12:53:25.058Z,16.88
2018-01-06T12:54:25.016Z,22.50
2018-01-06T12:56:17.869Z,22.50
2018-01-06T12:57:17.859Z,22.50
2018-01-06T12:59:10.730Z,16.88
2018-01-06T13:00:10.698Z,16.88
2018-01-06T13:02:03.556Z,16.88
2018-01-06T13:03:03.541Z,22.50
2018-01-06T13:04:56.410Z,16.88
2018-01-06T13:05:56.371Z,16.88
2018-01-06T13:07:49.236Z,22.50
2018-01-06T13:08:49.219Z,22.50
2018-01-06T13:10:42.096Z,16.88
2018-01-06T13:11:42.062Z,16.88
2018-01-06T13:13:34.915Z,16.88
2018-01-06T13:14:34.900Z,16.88
2018-01-06T13:16:27.779Z,22.50
2018-01-06T13:17:27.741Z,22.50
2018-01-06T13:19:20.598Z,22.50
2018-01-06T13:20:20.584Z,22.50
2018-01-06T13:22:13.456Z,16.88
2018-01-06T13:23:13.426Z,16.88
2018-01-06T13:25:06.283Z,16.88
2018-01-06T13:26:06.262Z,16.88
2018-01-06T13:27:59.132Z,16.88
2018-01-06T13:28:59.099Z,16.88
2018-01-06T13:30:51.950Z,11.25
2018-01-06T13:31:51.933Z,11.25
2018-01-06T13:33:44.810Z,11.25
2018-01-06T13:34:44.774Z,11.25
2018-01-06T13:36:37.633Z,11.25
2018-01-06T13:37:37.616Z,11.25
2018-01-06T13:39:30.487Z,11.25
2018-01-06T13:40:30.450Z,11.25
2018-01-06T13:42:23.308Z,11.25
2018-01-06T13:43:23.287Z,5.63
2018-01-06T13:45:16.161Z,5.63
2018-01-06T13:46:16.132Z,5.63
2018-01-06T13:48:08.985Z,11.25
2018-01-06T13:49:08.965Z,11.25
2018-01-06T13:51:01.840Z,5.63
2018-01-06T13:52:01.804Z,11.25
2018-01-06T13:53:54.659Z,11.25
2018-01-06T13:54:54.642Z,16.88
2018-01-06T13:56:47.519Z,16.88
2018-01-06T13:57:47.485Z,22.50
2018-01-06T13:59:40.339Z,28.13
2018-01-06T14:00:40.317Z,28.13
2018-01-06T14:02:33.196Z,28.13
2018-01-06T14:03:33.159Z,22.50
2018-01-06T14:05:26.024Z,11.25
2018-01-06T14:06:26.004Z,16.88
2018-01-06T14:08:18.877Z,16.88
2018-01-06T14:09:18.849Z,16.88
2018-01-06T14:11:11.708Z,11.25
2018-01-06T14:12:11.689Z,11.25
2018-01-06T14:14:04.566Z,11.25
2018-01-06T14:15:04.528Z,5.63
2018-01-06T14:16:57.384Z,5.63
2018-01-06T14:17:57.365Z,5.63
2018-01-06T14:19:50.249Z,5.63
2018-01-06T14:20:50.207Z,5.63
2018-01-06T14:22:43.070Z,5.63
2018-01-06T14:23:43.050Z,5.63
2018-01-06T14:25:35.927Z,5.63
2018-01-06T14:26:35.892Z,5.63
2018-01-06T14:28:28.753Z,5.63
2018-01-06T14:29:28.731Z,5.63
2018-01-06T14:31:21.610Z,5.63
2018-01-06T14:32:21.572Z,5.63
2018-01-06T14:34:14.431Z,5.63
2018-01-06T14:35:14.415Z,5.63
2018-01-06T14:37:07.300Z,5.63
2018-01-06T14:38:07.257Z,5.63
2018-01-06T14:40:00.115Z,0.00
2018-01-06T14:41:00.100Z,0.00
2018-01-06T14:42:52.981Z,0.00
2018-01-06T14:43:52.964Z,0.00
2018-01-06T14:45:45.789Z,0.00
2018-01-06T14:46:45.775Z,0.00
2018-01-06T14:48:38.661Z,0.00
2018-01-06T14:49:38.611Z,0.00
2018-01-06T14:51:31.470Z,0.00
2018-01-06T14:52:31.451Z,0.00
2018-01-06T14:54:24.330Z,0.00
2018-01-06T14:55:24.289Z,0.00
2018-01-06T14:57:17.159Z,0.00
2018-01-06T14:58:17.138Z,0.00
2018-01-06T15:00:10.015Z,0.00
2018-01-06T15:01:09.981Z,0.00
2018-01-06T15:03:02.836Z,0.00
2018-01-06T15:04:02.815Z,0.00
2018-01-06T15:05:55.686Z,0.00
2018-01-06T15:06:55.657Z,0.00
2018-01-06T15:08:48.509Z,0.00
2018-01-06T15:09:48.494Z,0.00
2018-01-06T15:11:41.360Z,0.00
2018-01-06T15:12:41.330Z,0.00
2018-01-06T15:14:34.190Z,0.00
2018-01-06T15:15:34.167Z,0.00
2018-01-06T15:17:27.037Z,0.00
2018-01-06T15:18:27.004Z,0.00
2018-01-06T15:20:19.863Z,0.00
2018-01-06T15:21:19.843Z,0.00
2018-01-06T15:23:12.723Z,0.00
2018-01-06T15:24:12.681Z,0.00
2018-01-06T15:26:05.538Z,0.00
2018-01-06T15:27:05.518Z,0.00
2018-01-06T15:28:58.395Z,0.00
2018-01-06T15:29:58.359Z,0.00
2018-01-06T15:31:51.215Z,0.00
2018-01-06T15:32:51.200Z,0.00
2018-01-06T15:34:44.073Z,0.00
2018-01-06T15:35:44.036Z,0.00
2018-01-06T15:37:36.893Z,0.00
2018-01-06T15:38:36.875Z,0.00
2018-01-06T15:40:29.751Z,0.00
2018-01-06T15:41:29.715Z,0.00
2018-01-06T15:43:22.572Z,0.00
2018-01-06T15:44:22.551Z,0.00
2018-01-06T15:46:15.425Z,0.00
2018-01-06T15:47:15.397Z,0.00
2018-01-06T15:49:08.247Z,0.00
2018-01-06T15:50:08.230Z,0.00
2018-01-06T15:52:01.099Z,0.00
2018-01-06T15:53:01.067Z,0.00
2018-01-06T15:54:53.920Z,0.00
2018-01-06T15:55:53.905Z,0.00
2018-01-06T15:57:46.771Z,0.00
2018-01-06T15:58:46.740Z,0.00
2018-01-06T16:00:39.600Z,0.00
2018-01-06T16:01:39.586Z,0.00
2018-01-06T16:03:32.456Z,0.00
2018-01-06T16:04:32.414Z,0.00
2018-01-06T16:06:25.276Z,0.00
2018-01-06T16:07:25.256Z,0.00
2018-01-06T16:09:18.125Z,0.00
2018-01-06T16:10:18.088Z,0.00
2018-01-06T16:12:10.946Z,0.00
2018-01-06T16:13:10.926Z,0.00
2018-01-06T16:15:03.798Z,0.00
2018-01-06T16:16:03.762Z,0.00
2018-01-06T16:17:56.615Z,0.00
2018-01-06T16:18:56.595Z,0.00
2018-01-06T16:20:49.477Z,0.00
2018-01-06T16:21:49.442Z,0.00
2018-01-06T16:23:42.294Z,0.00
2018-01-06T16:24:42.277Z,0.00
2018-01-06T16:26:35.155Z,0.00
2018-01-06T16:27:35.119Z,0.00
2018-01-06T16:29:27.974Z,0.00
2018-01-06T16:30:27.960Z,0.00
2018-01-06T16:32:20.829Z,0.00
2018-01-06T16:33:20.790Z,0.00
2018-01-06T16:35:13.649Z,0.00
2018-01-06T16:36:13.637Z,0.00
2018-01-06T16:38:06.500Z,0.00
2018-01-06T16:39:06.472Z,0.00
2018-01-06T16:40:59.318Z,0.00
2018-01-06T16:41:59.301Z,0.00
2018-01-06T16:43:52.168Z,0.00
2018-01-06T16:44:52.137Z,0.00
2018-01-06T16:46:44.996Z,0.00
2018-01-06T16:47:44.979Z,0.00
2018-01-06T16:49:37.852Z,0.00
2018-01-06T16:50:37.832Z,0.00
2018-01-06T16:52:30.678Z,0.00
2018-01-06T16:53:30.650Z,0.00
2018-01-06T16:55:23.524Z,0.00
2018-01-06T16:56:23.492Z,0.00
2018-01-06T16:58:16.346Z,0.00
2018-01-06T16:59:16.326Z,0.00
2018-01-06T17:01:09.196Z,0.00
2018-01-06T17:02:09.161Z,0.00
2018-01-06T17:04:02.019Z,0.00
2018-01-06T17:05:02.002Z,0.00
2018-01-06T17:06:54.920Z,0.00
2018-01-06T17:07:54.845Z,0.00
2018-01-06T17:09:47.700Z,0.00
2018-01-06T17:10:47.676Z,0.00
2018-01-06T17:12:40.597Z,0.00
2018-01-06T17:13:40.522Z,0.00
2018-01-06T17:15:33.375Z,0.00
2018-01-06T17:16:33.361Z,0.00
2018-01-06T17:18:26.231Z,0.00
2018-01-06T17:19:26.193Z,0.00
2018-01-06T17:21:19.074Z,0.00
2018-01-06T17:22:19.049Z,0.00
2018-01-06T17:24:11.911Z,0.00
2018-01-06T17:25:11.878Z,0.00
2018-01-06T17:27:04.737Z,0.00
2018-01-06T17:28:04.712Z,0.00
2018-01-06T17:29:57.582Z,0.00
2018-01-06T17:30:57.558Z,0.00
2018-01-06T17:32:50.401Z,0.00
2018-01-06T17:33:50.386Z,0.00
2018-01-06T17:35:43.268Z,0.00
2018-01-06T17:36:43.222Z,0.00
2018-01-06T17:38:36.077Z,0.00
2018-01-06T17:39:36.054Z,0.00
2018-01-06T17:41:28.931Z,0.00
2018-01-06T17:42:28.889Z,0.00
2018-01-06T17:44:21.741Z,0.00
2018-01-06T17:45:21.722Z,0.00
2018-01-06T17:47:14.589Z,0.00
2018-01-06T17:48:14.553Z,0.00
2018-01-06T17:50:07.411Z,0.00
2018-01-06T17:51:07.390Z,0.00
2018-01-06T17:53:00.262Z,0.00
2018-01-06T17:54:00.227Z,0.00
2018-01-06T17:55:53.090Z,0.00
2018-01-06T17:56:53.061Z,0.00
2018-01-06T17:58:45.933Z,0.00
2018-01-06T17:59:45.900Z,0.00
2018-01-06T18:01:38.753Z,0.00
2018-01-06T18:02:38.733Z,0.00
2018-01-06T18:04:31.606Z,0.00
2018-01-06T18:05:31.568Z,0.00
2018-01-06T18:07:24.428Z,0.00
2018-01-06T18:08:24.407Z,0.00
2018-01-06T18:10:17.277Z,0.00
2018-01-06T18:11:17.248Z,0.00
2018-01-06T18:13:10.090Z,0.00
2018-01-06T18:14:10.081Z,0.00
2018-01-06T18:16:02.945Z,0.00
2018-01-06T18:17:02.914Z,0.00
2018-01-06T18:18:55.769Z,0.00
2018-01-06T18:19:55.748Z,0.00
2018-01-06T18:21:48.621Z,0.00
2018-01-06T18:22:48.591Z,0.00
2018-01-06T18:24:41.442Z,0.00
2018-01-06T18:25:41.420Z,0.00
2018-01-06T18:27:34.289Z,0.00
2018-01-06T18:28:34.250Z,0.00
2018-01-06T18:30:27.105Z,0.00
2018-01-06T18:31:27.092Z,0.00
2018-01-06T18:33:19.988Z,0.00
2018-01-06T18:34:19.925Z,0.00
2018-01-06T18:36:12.777Z,0.00
2018-01-06T18:37:12.755Z,0.00
2018-01-06T18:39:05.627Z,0.00
2018-01-06T18:40:05.594Z,0.00
2018-01-06T18:41:58.453Z,0.00
2018-01-06T18:42:58.430Z,0.00
2018-01-06T18:44:51.302Z,0.00
2018-01-06T18:45:51.269Z,0.00
2018-01-06T18:47:44.115Z,0.00
2018-01-06T18:48:44.096Z,0.00
2018-01-06T18:50:36.969Z,0.00
2018-01-06T18:51:36.928Z,0.00
2018-01-06T18:53:29.781Z,0.00
2018-01-06T18:54:29.766Z,0.00
2018-01-06T18:56:22.626Z,0.00
2018-01-06T18:57:22.591Z,0.00
2018-01-06T18:59:15.449Z,0.00
2018-01-06T19:00:15.433Z,0.00
2018-01-06T19:02:08.295Z,0.00